x

Grays Reef - 40 Nm Southeast Of Savannah, Ga (41008) Wave Buoy

11:50am - Tue 9th Feb 2016 All times are EST. -5 hours from GMT.

  • Sig Wave height 4.6ft
  • Swell Direction
  • Peak Period 5s
  • Average Period 4s
  • Wind
    27mph, 36mph gusts
  • Sea Temp 55°f
  • Air Temp 45°f
  • Sea Pressure 1012.4mb
  • Grays Reef - 40 Nm Southeast Of Savannah, Ga
  • Grays Reef - 40 Nm Southeast Of Savannah, Ga

More Historic Weather Station data

Upgrade to MSW Pro to gain access to the past 30 days of data for over 8000 Wavebouys and Weather Stations around the globe.

Join Pro

Comparision Forecast

View Surf forecast
   
Tue 02/09 11:50am 4.5ft 5s 4s 27 36 mph 1012.4mb 55f 45f
10:50am 4.5ft 5s 4s 27 31 mph 1012.6mb 55f 45f
9:50am 5ft 5s 4s 27 31 mph 1012.8mb 55f 44f
8:50am 5ft 5s 4s 29 36 mph 1013.2mb 55f 44f
7:50am 4ft 5s 4s 29 34 mph 1013mb 55f 44f
6:50am 3.5ft 5s 4s 25 29 mph 1012mb 55f 45f
5:50am 4ft 5s 4s 22 27 mph 1011.2mb 55f 45f
4:50am 4ft 5s 4s 22 27 mph 1011.1mb 55f 46f
3:50am 3.5ft 4s 4s 27 31 mph 1010.4mb 54f 47f
2:50am 3.5ft 4s 4s 25 29 mph 1010.1mb 55f 49f
1:50am 3ft 3s 4s 22 27 mph 1009.9mb 55f 49f
12:50am 3ft 7s 4s 22 29 mph 1009.4mb 55f 51f
Mon 02/08 11:50pm 3ft 6s 4s 18 20 mph 1009.1mb 55f 51f
10:50pm 3.5ft 6s 4s 16 18 mph 1009.2mb 55f 50f
9:50pm 4.5ft 6s 4s 11 13 mph 1008.7mb 55f 50f
8:50pm 5ft 4s 4s 20 25 mph 1008.2mb 55f 49f
7:50pm 4ft 5s 4s 31 38 mph 1007.4mb 55f 50f
6:50pm 3.5ft 5s 4s 22 27 mph 1005.8mb 55f 58f
5:50pm 3.5ft 15s 5s 16 18 mph 1006.9mb 55f 57f
4:50pm 3.5ft 16s 4s 18 20 mph 1007.8mb 55f 57f
3:50pm 3.5ft 15s 5s 18 20 mph 1007.9mb 55f 56f
2:50pm 3.5ft 15s 5s 20 25 mph 1009.1mb 55f 55f
1:50pm 3.5ft 16s 4s 20 25 mph 1010.5mb 55f 55f
12:50pm 3ft 4s 4s 20 22 mph 1012.2mb 55f 53f
11:50am 2.5ft 4s 4s 18 22 mph 1013.5mb 55f 52f
10:50am 2.5ft 16s 4s 16 20 mph 1014.2mb 55f 51f
9:50am 2.5ft 14s 4s 16 18 mph 1014.6mb 55f 50f
8:50am 3ft 15s 5s 13 16 mph 1014.6mb 55f 49f
7:50am 3.5ft 14s 4s 16 18 mph 1014.5mb 55f 50f
6:50am 3.5ft 14s 5s 18 20 mph 1014.7mb 55f 50f
5:50am 4ft 14s 5s 18 20 mph 1014.4mb 55f 49f
4:50am 4ft 15s 5s 20 22 mph 1014.4mb 55f 50f
3:50am 4.5ft 15s 5s 18 22 mph 1014.3mb 55f 51f
2:50am 3.5ft 4s 5s 20 25 mph 1014.8mb 55f 51f
1:50am 3.5ft 8s 5s 20 25 mph 1015.1mb 55f 51f
12:50am 3.5ft 8s 4s 20 25 mph 1015.7mb 55f 52f
Sun 02/07 11:50pm 3.5ft 13s 5s 18 22 mph 1015.6mb 55f 52f
10:50pm 3.5ft 7s 5s 16 20 mph 1016mb 55f 53f
9:50pm 3.5ft 13s 5s 16 20 mph 1015.5mb 55f 53f
8:50pm 4.5ft 11s 5s 16 20 mph 1014.5mb 56f 54f
7:50pm 4.5ft 6s 5s 18 20 mph 1013.7mb 56f 54f
6:50pm 4.5ft 6s 5s 18 22 mph 1013.5mb 56f 54f
5:50pm 5ft 6s 5s 18 20 mph 1013.6mb 56f 53f
4:50pm 6ft 5s 5s 22 27 mph 1013.3mb 56f 52f
3:50pm 5.5ft 5s 5s 25 31 mph 1013.7mb 55f 51f
2:50pm 6ft 5s 5s 27 31 mph 1013.7mb 55f 49f
1:50pm 6ft 6s 5s 27 34 mph 1013.8mb 55f 48f
12:50pm 6ft 5s 5s 27 31 mph 1014.4mb 55f 47f
11:50am 6ft 8s 5s 27 31 mph 1015.1mb 56f 45f
10:50am 6ft 7s 5s 27 34 mph 1015.2mb 56f 44f
9:50am 6ft 8s 5s 27 31 mph 1015.1mb 56f 43f
8:50am 6ft 6s 5s 25 29 mph 1014.7mb 56f 44f
7:50am 6.5ft 8s 5s 29 34 mph 1014.6mb 56f 44f
6:50am 7ft 7s 5s 27 31 mph 1014.6mb 56f 44f
5:50am 7ft 8s 5s 27 31 mph 1014.3mb 56f 44f
4:50am 7.5ft 8s 5s 27 34 mph 1013.6mb 56f 46f
3:50am 8ft 8s 6s 27 34 mph 1013.3mb 56f 47f
2:50am 7ft 7s 5s 29 34 mph 1013.9mb 55f 47f
1:50am 8ft 6s 5s 29 34 mph 1014.9mb 55f 46f
12:50am 8ft 7s 5s 29 34 mph 1016.1mb 55f 47f
Sat 02/06 11:50pm 7.5ft 6s 5s 31 38 mph 1015.8mb 55f 47f
10:50pm  -   -   -  29 34 mph 1018.6mb 56f 47f
9:50pm 7ft 6s 5s 31 36 mph 1018.5mb 56f 47f
8:50pm 7ft 6s 5s 29 36 mph 1018.7mb 56f 49f
7:50pm 8ft 6s 5s 29 34 mph 1019.2mb 56f 50f
6:50pm 6.5ft 7s 5s 29 34 mph 1020.3mb 56f 50f
5:50pm 6.5ft 7s 5s 29 36 mph 1020.4mb 56f 51f
4:50pm 6.5ft 7s 5s 25 31 mph 1021.2mb 56f 52f
3:50pm 6ft 7s 5s 25 29 mph 1021.4mb 56f 53f
2:50pm 6.5ft 7s 5s 22 29 mph 1022mb 56f 53f
1:50pm 7ft 6s 5s 25 29 mph 1022.8mb 56f 53f
12:50pm 6.5ft 6s 5s 22 29 mph 1024mb 56f 53f
11:50am 6.5ft 6s 5s 25 29 mph 1025.3mb 56f 52f
10:50am 7ft 6s 5s 25 31 mph 1026.1mb 56f 52f
9:50am 6ft 6s 5s 27 31 mph 1025.8mb 56f 51f
8:50am 7ft 6s 5s 25 31 mph 1025.9mb 56f 51f
7:50am 6ft 5s 5s 27 31 mph 1025.6mb 56f 51f
6:50am 5ft 5s 5s 27 31 mph 1025.7mb 57f 50f
5:50am 4.5ft 4s 4s 27 31 mph 1025.6mb 57f 50f
4:50am 4.5ft 8s 4s 22 27 mph 1025.7mb 57f 51f
3:50am 4ft 9s 4s 20 25 mph 1025.7mb 57f 51f
2:50am 3.5ft 5s 4s 18 20 mph 1026mb 56f 52f
1:50am 3.5ft 4s 4s 20 25 mph 1026.7mb 56f 51f
12:50am 3.5ft 6s 4s 16 20 mph 1028mb 56f 51f
Fri 02/05 11:50pm 3ft 6s 4s 16 20 mph 1028.1mb 56f 51f
10:50pm 3ft 6s 4s 16 18 mph 1028.2mb 56f 52f
9:50pm 3ft 6s 5s 13 18 mph 1028.3mb 56f 52f
8:50pm 3ft 6s 5s 13 18 mph 1028mb 56f 52f
7:50pm 3ft 6s 5s 13 20 mph 1027.8mb 56f 52f
6:50pm 3ft 6s 4s 13 16 mph 1027.5mb 56f 52f